sensor_id;sensor_type;location;lat;lon;timestamp;pressure;altitude;pressure_sealevel;temperature;humidity
19748;BME280;10032;51.386;12.516;2022-07-12T00:01:50;100829.47;;;17.28;100.00
19748;BME280;10032;51.386;12.516;2022-07-12T00:04:16;100834.94;;;17.28;100.00
19748;BME280;10032;51.386;12.516;2022-07-12T00:06:41;100835.50;;;17.25;100.00
19748;BME280;10032;51.386;12.516;2022-07-12T00:09:07;100838.78;;;17.22;100.00
19748;BME280;10032;51.386;12.516;2022-07-12T00:11:34;100828.41;;;17.19;100.00
19748;BME280;10032;51.386;12.516;2022-07-12T00:14:00;100832.25;;;17.13;100.00
19748;BME280;10032;51.386;12.516;2022-07-12T00:16:26;100834.44;;;17.06;100.00
19748;BME280;10032;51.386;12.516;2022-07-12T00:18:51;100830.31;;;17.04;100.00
19748;BME280;10032;51.386;12.516;2022-07-12T00:21:16;100839.09;;;17.06;100.00
19748;BME280;10032;51.386;12.516;2022-07-12T00:23:42;100829.78;;;17.07;100.00
19748;BME280;10032;51.386;12.516;2022-07-12T00:26:07;100840.47;;;17.08;100.00
19748;BME280;10032;51.386;12.516;2022-07-12T00:28:33;100844.28;;;17.07;100.00
19748;BME280;10032;51.386;12.516;2022-07-12T00:31:02;100842.63;;;17.11;100.00
19748;BME280;10032;51.386;12.516;2022-07-12T00:33:28;100840.16;;;17.10;100.00
19748;BME280;10032;51.386;12.516;2022-07-12T00:35:54;100839.09;;;17.16;100.00
19748;BME280;10032;51.386;12.516;2022-07-12T00:38:20;100842.09;;;17.14;100.00
19748;BME280;10032;51.386;12.516;2022-07-12T00:40:45;100845.09;;;17.18;100.00
19748;BME280;10032;51.386;12.516;2022-07-12T00:43:11;100840.47;;;17.18;100.00
19748;BME280;10032;51.386;12.516;2022-07-12T00:45:37;100843.19;;;17.13;100.00
19748;BME280;10032;51.386;12.516;2022-07-12T00:48:02;100838.25;;;17.10;100.00
19748;BME280;10032;51.386;12.516;2022-07-12T00:50:28;100836.06;;;17.12;100.00
19748;BME280;10032;51.386;12.516;2022-07-12T00:52:54;100834.41;;;17.11;100.00
19748;BME280;10032;51.386;12.516;2022-07-12T00:55:21;100829.25;;;17.05;100.00
19748;BME280;10032;51.386;12.516;2022-07-12T00:57:48;100831.41;;;17.03;100.00
19748;BME280;10032;51.386;12.516;2022-07-12T01:00:32;100822.94;;;16.99;100.00
19748;BME280;10032;51.386;12.516;2022-07-12T01:03:01;100824.03;;;16.98;100.00
19748;BME280;10032;51.386;12.516;2022-07-12T01:05:27;100823.22;;;16.98;100.00
19748;BME280;10032;51.386;12.516;2022-07-12T01:07:54;100828.69;;;16.98;100.00
19748;BME280;10032;51.386;12.516;2022-07-12T01:10:20;100828.94;;;16.91;100.00
19748;BME280;10032;51.386;12.516;2022-07-12T01:12:45;100836.09;;;16.92;100.00
19748;BME280;10032;51.386;12.516;2022-07-12T01:15:11;100831.72;;;16.86;100.00
19748;BME280;10032;51.386;12.516;2022-07-12T01:17:36;100839.94;;;16.86;100.00
19748;BME280;10032;51.386;12.516;2022-07-12T01:20:04;100829.78;;;16.82;100.00
19748;BME280;10032;51.386;12.516;2022-07-12T01:22:33;100824.31;;;16.82;100.00
19748;BME280;10032;51.386;12.516;2022-07-12T01:25:00;100826.78;;;16.83;100.00
19748;BME280;10032;51.386;12.516;2022-07-12T01:27:26;100825.41;;;16.76;100.00
19748;BME280;10032;51.386;12.516;2022-07-12T01:29:51;100829.50;;;16.78;100.00
19748;BME280;10032;51.386;12.516;2022-07-12T01:32:17;100832.53;;;16.77;100.00
19748;BME280;10032;51.386;12.516;2022-07-12T01:34:56;100830.06;;;16.75;100.00
19748;BME280;10032;51.386;12.516;2022-07-12T01:37:23;100837.72;;;16.73;100.00
19748;BME280;10032;51.386;12.516;2022-07-12T01:39:53;100840.47;;;16.73;100.00
19748;BME280;10032;51.386;12.516;2022-07-12T01:42:21;100833.88;;;16.69;100.00
19748;BME280;10032;51.386;12.516;2022-07-12T01:44:51;100836.91;;;16.63;100.00
19748;BME280;10032;51.386;12.516;2022-07-12T01:47:18;100838.81;;;16.57;100.00
19748;BME280;10032;51.386;12.516;2022-07-12T01:49:44;100837.44;;;16.55;100.00
19748;BME280;10032;51.386;12.516;2022-07-12T01:52:10;100845.38;;;16.51;100.00
19748;BME280;10032;51.386;12.516;2022-07-12T01:54:35;100840.44;;;16.48;100.00
19748;BME280;10032;51.386;12.516;2022-07-12T01:57:04;100847.25;;;16.46;100.00
19748;BME280;10032;51.386;12.516;2022-07-12T01:59:30;100847.81;;;16.43;100.00
19748;BME280;10032;51.386;12.516;2022-07-12T02:01:56;100849.44;;;16.39;100.00
19748;BME280;10032;51.386;12.516;2022-07-12T02:04:22;100843.72;;;16.40;100.00
19748;BME280;10032;51.386;12.516;2022-07-12T02:06:48;100845.03;;;16.38;100.00
19748;BME280;10032;51.386;12.516;2022-07-12T02:09:14;100846.41;;;16.35;100.00
19748;BME280;10032;51.386;12.516;2022-07-12T02:11:40;100841.47;;;16.32;100.00
19748;BME280;10032;51.386;12.516;2022-07-12T02:14:06;100837.06;;;16.26;100.00
19748;BME280;10032;51.386;12.516;2022-07-12T02:16:31;100848.00;;;16.26;100.00
19748;BME280;10032;51.386;12.516;2022-07-12T02:18:57;100845.84;;;16.23;100.00
19748;BME280;10032;51.386;12.516;2022-07-12T02:21:22;100847.44;;;16.19;100.00
19748;BME280;10032;51.386;12.516;2022-07-12T02:23:48;100846.88;;;16.17;100.00
19748;BME280;10032;51.386;12.516;2022-07-12T02:26:13;100860.00;;;16.15;100.00
19748;BME280;10032;51.386;12.516;2022-07-12T02:28:39;100857.25;;;16.10;100.00
19748;BME280;10032;51.386;12.516;2022-07-12T02:31:07;100856.16;;;16.06;100.00
19748;BME280;10032;51.386;12.516;2022-07-12T02:33:33;100847.94;;;16.01;100.00
19748;BME280;10032;51.386;12.516;2022-07-12T02:35:58;100853.94;;;15.98;100.00
19748;BME280;10032;51.386;12.516;2022-07-12T02:38:24;100849.84;;;15.96;100.00
19748;BME280;10032;51.386;12.516;2022-07-12T02:40:49;100856.69;;;15.98;100.00
19748;BME280;10032;51.386;12.516;2022-07-12T02:43:24;100855.84;;;15.98;100.00
19748;BME280;10032;51.386;12.516;2022-07-12T02:45:51;100858.31;;;15.99;100.00
19748;BME280;10032;51.386;12.516;2022-07-12T02:48:17;100848.47;;;15.98;100.00
19748;BME280;10032;51.386;12.516;2022-07-12T02:50:42;100851.22;;;15.98;100.00
19748;BME280;10032;51.386;12.516;2022-07-12T02:53:08;100857.19;;;15.95;100.00
19748;BME280;10032;51.386;12.516;2022-07-12T02:55:34;100856.66;;;15.93;100.00
19748;BME280;10032;51.386;12.516;2022-07-12T02:58:00;100859.91;;;15.90;100.00
19748;BME280;10032;51.386;12.516;2022-07-12T03:00:26;100867.03;;;15.91;100.00
19748;BME280;10032;51.386;12.516;2022-07-12T03:02:52;100863.19;;;15.87;100.00
19748;BME280;10032;51.386;12.516;2022-07-12T03:05:17;100865.66;;;15.84;100.00
19748;BME280;10032;51.386;12.516;2022-07-12T03:07:43;100875.72;;;15.78;100.00
19748;BME280;10032;51.386;12.516;2022-07-12T03:10:08;100872.69;;;15.75;100.00
19748;BME280;10032;51.386;12.516;2022-07-12T03:12:34;100868.88;;;15.76;100.00
19748;BME280;10032;51.386;12.516;2022-07-12T03:15:00;100877.59;;;15.78;100.00
19748;BME280;10032;51.386;12.516;2022-07-12T03:17:25;100878.44;;;15.78;100.00
19748;BME280;10032;51.386;12.516;2022-07-12T03:19:51;100877.09;;;15.81;100.00
19748;BME280;10032;51.386;12.516;2022-07-12T03:22:17;100883.09;;;15.83;100.00
19748;BME280;10032;51.386;12.516;2022-07-12T03:24:42;100880.38;;;15.83;100.00
19748;BME280;10032;51.386;12.516;2022-07-12T03:27:07;100875.16;;;15.76;100.00
19748;BME280;10032;51.386;12.516;2022-07-12T03:29:33;100880.34;;;15.73;100.00
19748;BME280;10032;51.386;12.516;2022-07-12T03:31:58;100870.78;;;15.70;100.00
19748;BME280;10032;51.386;12.516;2022-07-12T03:34:23;100872.94;;;15.73;100.00
19748;BME280;10032;51.386;12.516;2022-07-12T03:36:49;100877.03;;;15.71;100.00
19748;BME280;10032;51.386;12.516;2022-07-12T03:39:14;100881.41;;;15.72;100.00
19748;BME280;10032;51.386;12.516;2022-07-12T03:41:40;100889.09;;;15.75;100.00
19748;BME280;10032;51.386;12.516;2022-07-12T03:44:05;100884.97;;;15.72;100.00
19748;BME280;10032;51.386;12.516;2022-07-12T03:46:32;100886.63;;;15.73;100.00
19748;BME280;10032;51.386;12.516;2022-07-12T03:48:58;100890.44;;;15.72;100.00
19748;BME280;10032;51.386;12.516;2022-07-12T03:51:24;100884.72;;;15.74;100.00
19748;BME280;10032;51.386;12.516;2022-07-12T03:53:50;100890.72;;;15.76;100.00
19748;BME280;10032;51.386;12.516;2022-07-12T03:56:15;100889.91;;;15.75;100.00
19748;BME280;10032;51.386;12.516;2022-07-12T03:59:00;100899.19;;;15.74;100.00
19748;BME280;10032;51.386;12.516;2022-07-12T04:01:26;100893.19;;;15.72;100.00
19748;BME280;10032;51.386;12.516;2022-07-12T04:03:51;100894.81;;;15.73;100.00
19748;BME280;10032;51.386;12.516;2022-07-12T04:06:17;100896.19;;;15.76;100.00
19748;BME280;10032;51.386;12.516;2022-07-12T04:08:45;100887.72;;;15.77;100.00
19748;BME280;10032;51.386;12.516;2022-07-12T04:11:10;100899.19;;;15.74;100.00
19748;BME280;10032;51.386;12.516;2022-07-12T04:13:36;100901.94;;;15.79;100.00
19748;BME280;10032;51.386;12.516;2022-07-12T04:16:01;100905.28;;;15.86;100.00
19748;BME280;10032;51.386;12.516;2022-07-12T04:18:26;100907.47;;;15.89;100.00
19748;BME280;10032;51.386;12.516;2022-07-12T04:20:52;100910.19;;;15.89;100.00
19748;BME280;10032;51.386;12.516;2022-07-12T04:23:17;100906.38;;;15.90;100.00
19748;BME280;10032;51.386;12.516;2022-07-12T04:25:42;100913.50;;;15.91;100.00
19748;BME280;10032;51.386;12.516;2022-07-12T04:28:08;100914.53;;;15.85;100.00
19748;BME280;10032;51.386;12.516;2022-07-12T04:30:33;100912.13;;;15.89;100.00
19748;BME280;10032;51.386;12.516;2022-07-12T04:32:58;100918.41;;;15.89;100.00
19748;BME280;10032;51.386;12.516;2022-07-12T04:35:24;100918.72;;;15.98;100.00
19748;BME280;10032;51.386;12.516;2022-07-12T04:37:50;100915.47;;;16.01;100.00
19748;BME280;10032;51.386;12.516;2022-07-12T04:40:15;100918.22;;;16.06;100.00
19748;BME280;10032;51.386;12.516;2022-07-12T04:42:40;100918.25;;;16.11;100.00
19748;BME280;10032;51.386;12.516;2022-07-12T04:45:06;100924.53;;;16.16;100.00
19748;BME280;10032;51.386;12.516;2022-07-12T04:47:35;100924.84;;;16.25;100.00
19748;BME280;10032;51.386;12.516;2022-07-12T04:50:06;100928.78;;;16.39;100.00
19748;BME280;10032;51.386;12.516;2022-07-12T04:52:31;100927.69;;;16.45;100.00
19748;BME280;10032;51.386;12.516;2022-07-12T04:54:57;100923.63;;;16.57;100.00
19748;BME280;10032;51.386;12.516;2022-07-12T04:57:22;100933.53;;;16.78;100.00
19748;BME280;10032;51.386;12.516;2022-07-12T04:59:47;100941.78;;;17.03;100.00
19748;BME280;10032;51.386;12.516;2022-07-12T05:02:13;100942.59;;;17.29;100.00
19748;BME280;10032;51.386;12.516;2022-07-12T05:04:38;100933.03;;;17.51;100.00
19748;BME280;10032;51.386;12.516;2022-07-12T05:07:04;100940.13;;;17.72;100.00
19748;BME280;10032;51.386;12.516;2022-07-12T05:09:29;100931.56;;;17.94;100.00
19748;BME280;10032;51.386;12.516;2022-07-12T05:11:55;100933.38;;;18.23;100.00
19748;BME280;10032;51.386;12.516;2022-07-12T05:14:20;100927.81;;;18.48;100.00
19748;BME280;10032;51.386;12.516;2022-07-12T05:16:45;100933.94;;;18.79;100.00
19748;BME280;10032;51.386;12.516;2022-07-12T05:19:11;100933.03;;;18.93;100.00
19748;BME280;10032;51.386;12.516;2022-07-12T05:21:36;100941.44;;;19.12;100.00
19748;BME280;10032;51.386;12.516;2022-07-12T05:24:02;100945.28;;;19.11;100.00
19748;BME280;10032;51.386;12.516;2022-07-12T05:26:28;100952.13;;;19.13;100.00
19748;BME280;10032;51.386;12.516;2022-07-12T05:28:54;100945.94;;;19.36;100.00
19748;BME280;10032;51.386;12.516;2022-07-12T05:31:20;100953.06;;;19.37;100.00
19748;BME280;10032;51.386;12.516;2022-07-12T05:33:45;100960.31;;;19.57;100.00
19748;BME280;10032;51.386;12.516;2022-07-12T05:36:11;100953.78;;;19.76;100.00
19748;BME280;10032;51.386;12.516;2022-07-12T05:38:36;100952.28;;;19.89;100.00
19748;BME280;10032;51.386;12.516;2022-07-12T05:41:02;100958.38;;;20.14;100.00
19748;BME280;10032;51.386;12.516;2022-07-12T05:43:27;100960.16;;;20.47;100.00
19748;BME280;10032;51.386;12.516;2022-07-12T05:45:55;100959.84;;;20.72;100.00
19748;BME280;10032;51.386;12.516;2022-07-12T05:48:21;100965.47;;;21.04;100.00
19748;BME280;10032;51.386;12.516;2022-07-12T05:50:46;100973.81;;;21.18;100.00
19748;BME280;10032;51.386;12.516;2022-07-12T05:53:12;100977.75;;;21.30;100.00
19748;BME280;10032;51.386;12.516;2022-07-12T05:55:51;100980.69;;;21.52;100.00
19748;BME280;10032;51.386;12.516;2022-07-12T05:58:18;100982.31;;;21.53;100.00
19748;BME280;10032;51.386;12.516;2022-07-12T06:00:44;100980.28;;;21.77;100.00
19748;BME280;10032;51.386;12.516;2022-07-12T06:03:10;100980.28;;;21.77;100.00
19748;BME280;10032;51.386;12.516;2022-07-12T06:05:37;100976.13;;;21.93;100.00
19748;BME280;10032;51.386;12.516;2022-07-12T06:08:03;100981.91;;;21.78;100.00
19748;BME280;10032;51.386;12.516;2022-07-12T06:10:28;100985.19;;;21.94;100.00
19748;BME280;10032;51.386;12.516;2022-07-12T06:12:53;100986.94;;;21.90;100.00
19748;BME280;10032;51.386;12.516;2022-07-12T06:15:19;100984.94;;;22.36;100.00
19748;BME280;10032;51.386;12.516;2022-07-12T06:17:44;100996.72;;;22.41;100.00
19748;BME280;10032;51.386;12.516;2022-07-12T06:20:10;100993.31;;;22.17;100.00
19748;BME280;10032;51.386;12.516;2022-07-12T06:22:36;100992.19;;;22.32;100.00
19748;BME280;10032;51.386;12.516;2022-07-12T06:25:01;100991.88;;;22.33;100.00
19748;BME280;10032;51.386;12.516;2022-07-12T06:27:27;100995.78;;;22.32;100.00
19748;BME280;10032;51.386;12.516;2022-07-12T06:29:52;100991.69;;;22.43;100.00
19748;BME280;10032;51.386;12.516;2022-07-12T06:32:17;100989.25;;;22.55;100.00
19748;BME280;10032;51.386;12.516;2022-07-12T06:34:44;101002.94;;;22.74;100.00
19748;BME280;10032;51.386;12.516;2022-07-12T06:37:09;100996.19;;;22.80;100.00
19748;BME280;10032;51.386;12.516;2022-07-12T06:39:36;100992.09;;;22.91;100.00
19748;BME280;10032;51.386;12.516;2022-07-12T06:42:01;100981.84;;;22.91;100.00
19748;BME280;10032;51.386;12.516;2022-07-12T06:44:30;100988.81;;;23.24;100.00
19748;BME280;10032;51.386;12.516;2022-07-12T06:46:56;100988.28;;;23.36;100.00
19748;BME280;10032;51.386;12.516;2022-07-12T06:49:22;100983.88;;;23.35;100.00
19748;BME280;10032;51.386;12.516;2022-07-12T06:51:47;100977.78;;;23.46;100.00
19748;BME280;10032;51.386;12.516;2022-07-12T06:54:13;100980.81;;;23.58;100.00
19748;BME280;10032;51.386;12.516;2022-07-12T06:56:38;100985.81;;;23.78;100.00
19748;BME280;10032;51.386;12.516;2022-07-12T06:59:03;100978.69;;;24.08;100.00
19748;BME280;10032;51.386;12.516;2022-07-12T07:01:29;100985.28;;;24.29;100.00
19748;BME280;10032;51.386;12.516;2022-07-12T07:03:54;100978.84;;;24.11;98.26
19748;BME280;10032;51.386;12.516;2022-07-12T07:06:20;100994.69;;;24.19;100.00
19748;BME280;10032;51.386;12.516;2022-07-12T07:08:45;100988.59;;;24.48;97.88
19748;BME280;10032;51.386;12.516;2022-07-12T07:11:11;100984.22;;;24.55;94.07
19748;BME280;10032;51.386;12.516;2022-07-12T07:13:36;100989.59;;;24.52;91.52
19748;BME280;10032;51.386;12.516;2022-07-12T07:16:02;100987.22;;;24.67;92.80
19748;BME280;10032;51.386;12.516;2022-07-12T07:18:27;100996.34;;;24.59;89.75
19748;BME280;10032;51.386;12.516;2022-07-12T07:20:53;101000.31;;;24.75;88.32
19748;BME280;10032;51.386;12.516;2022-07-12T07:23:18;100995.91;;;24.83;88.08
19748;BME280;10032;51.386;12.516;2022-07-12T07:25:46;100997.88;;;24.91;87.25
19748;BME280;10032;51.386;12.516;2022-07-12T07:28:11;100997.72;;;25.04;85.38
19748;BME280;10032;51.386;12.516;2022-07-12T07:30:37;101001.16;;;25.01;85.64
19748;BME280;10032;51.386;12.516;2022-07-12T07:33:19;100997.41;;;24.97;83.45
19748;BME280;10032;51.386;12.516;2022-07-12T07:35:45;101007.09;;;25.42;86.18
19748;BME280;10032;51.386;12.516;2022-07-12T07:38:10;101010.50;;;25.65;84.26
19748;BME280;10032;51.386;12.516;2022-07-12T07:40:36;100997.59;;;25.69;83.07
19748;BME280;10032;51.386;12.516;2022-07-12T07:43:01;100996.75;;;25.94;82.11
19748;BME280;10032;51.386;12.516;2022-07-12T07:45:26;100994.78;;;26.03;81.79
19748;BME280;10032;51.386;12.516;2022-07-12T07:47:52;100994.53;;;26.25;80.70
19748;BME280;10032;51.386;12.516;2022-07-12T07:50:17;100995.84;;;26.27;78.05
19748;BME280;10032;51.386;12.516;2022-07-12T07:52:43;100990.88;;;26.33;77.69
19748;BME280;10032;51.386;12.516;2022-07-12T07:55:08;100992.97;;;26.44;77.01
19748;BME280;10032;51.386;12.516;2022-07-12T07:57:33;100990.16;;;26.53;76.16
19748;BME280;10032;51.386;12.516;2022-07-12T07:59:59;100986.97;;;26.71;75.00
19748;BME280;10032;51.386;12.516;2022-07-12T08:02:24;100983.78;;;26.81;73.91
19748;BME280;10032;51.386;12.516;2022-07-12T08:04:50;100987.03;;;26.83;73.83
19748;BME280;10032;51.386;12.516;2022-07-12T08:07:17;100982.25;;;26.92;72.29
19748;BME280;10032;51.386;12.516;2022-07-12T08:09:42;100975.88;;;27.12;72.61
19748;BME280;10032;51.386;12.516;2022-07-12T08:12:07;100981.19;;;27.26;71.00
19748;BME280;10032;51.386;12.516;2022-07-12T08:14:33;100980.16;;;26.89;69.81
19748;BME280;10032;51.386;12.516;2022-07-12T08:16:58;100982.13;;;27.09;67.90
19748;BME280;10032;51.386;12.516;2022-07-12T08:19:24;100981.91;;;27.14;68.73
19748;BME280;10032;51.386;12.516;2022-07-12T08:21:49;100971.34;;;27.28;68.00
19748;BME280;10032;51.386;12.516;2022-07-12T08:24:14;100973.72;;;27.38;67.96
19748;BME280;10032;51.386;12.516;2022-07-12T08:26:40;100980.09;;;27.59;66.49
19748;BME280;10032;51.386;12.516;2022-07-12T08:29:06;100978.91;;;27.60;64.94
19748;BME280;10032;51.386;12.516;2022-07-12T08:31:31;100975.50;;;27.75;64.42
19748;BME280;10032;51.386;12.516;2022-07-12T08:33:56;100978.00;;;27.89;63.35
19748;BME280;10032;51.386;12.516;2022-07-12T08:36:22;100980.81;;;27.68;61.52
19748;BME280;10032;51.386;12.516;2022-07-12T08:38:47;100975.47;;;27.63;60.13
19748;BME280;10032;51.386;12.516;2022-07-12T08:41:13;100974.97;;;27.61;60.52
19748;BME280;10032;51.386;12.516;2022-07-12T08:43:39;100970.81;;;27.88;59.09
19748;BME280;10032;51.386;12.516;2022-07-12T08:46:10;100975.09;;;27.65;57.84
19748;BME280;10032;51.386;12.516;2022-07-12T08:48:36;100973.38;;;27.93;57.93
19748;BME280;10032;51.386;12.516;2022-07-12T08:51:20;100970.59;;;28.17;55.91
19748;BME280;10032;51.386;12.516;2022-07-12T08:53:46;100976.59;;;28.39;55.20
19748;BME280;10032;51.386;12.516;2022-07-12T08:56:35;100974.50;;;28.48;54.83
19748;BME280;10032;51.386;12.516;2022-07-12T08:59:18;100971.44;;;28.29;53.45
19748;BME280;10032;51.386;12.516;2022-07-12T09:01:47;100974.81;;;28.35;49.89
19748;BME280;10032;51.386;12.516;2022-07-12T09:04:17;100977.69;;;28.02;51.15
19748;BME280;10032;51.386;12.516;2022-07-12T09:06:43;100971.03;;;27.95;50.08
19748;BME280;10032;51.386;12.516;2022-07-12T09:09:09;100969.25;;;27.78;49.91
19748;BME280;10032;51.386;12.516;2022-07-12T09:11:37;100974.22;;;28.17;49.80
19748;BME280;10032;51.386;12.516;2022-07-12T09:14:03;100970.97;;;28.27;48.51
19748;BME280;10032;51.386;12.516;2022-07-12T09:16:28;100977.34;;;28.28;48.79
19748;BME280;10032;51.386;12.516;2022-07-12T09:19:12;100969.53;;;27.97;47.80
19748;BME280;10032;51.386;12.516;2022-07-12T09:21:46;100966.09;;;28.12;48.41
19748;BME280;10032;51.386;12.516;2022-07-12T09:24:11;100961.91;;;28.30;48.46
19748;BME280;10032;51.386;12.516;2022-07-12T09:26:37;100963.00;;;27.81;45.82
19748;BME280;10032;51.386;12.516;2022-07-12T09:29:07;100970.91;;;27.26;44.84
19748;BME280;10032;51.386;12.516;2022-07-12T09:31:45;100958.66;;;27.39;44.67
19748;BME280;10032;51.386;12.516;2022-07-12T09:34:31;100961.44;;;28.16;44.66
19748;BME280;10032;51.386;12.516;2022-07-12T09:37:14;100964.75;;;28.42;44.33
19748;BME280;10032;51.386;12.516;2022-07-12T09:39:41;100957.22;;;28.10;44.73
19748;BME280;10032;51.386;12.516;2022-07-12T09:42:10;100963.06;;;28.17;45.33
19748;BME280;10032;51.386;12.516;2022-07-12T09:44:38;100958.13;;;28.47;45.60
19748;BME280;10032;51.386;12.516;2022-07-12T09:47:05;100960.41;;;28.45;43.32
19748;BME280;10032;51.386;12.516;2022-07-12T09:49:33;100956.69;;;28.65;44.10
19748;BME280;10032;51.386;12.516;2022-07-12T09:52:02;100960.19;;;28.74;44.90
19748;BME280;10032;51.386;12.516;2022-07-12T09:54:28;100958.94;;;28.59;44.96
19748;BME280;10032;51.386;12.516;2022-07-12T09:56:58;100971.09;;;28.31;44.64
19748;BME280;10032;51.386;12.516;2022-07-12T09:59:27;100976.56;;;28.27;44.15
19748;BME280;10032;51.386;12.516;2022-07-12T10:01:54;100962.38;;;28.68;44.30
19748;BME280;10032;51.386;12.516;2022-07-12T10:04:21;100956.13;;;28.71;41.99
19748;BME280;10032;51.386;12.516;2022-07-12T10:06:47;100961.00;;;28.50;43.26
19748;BME280;10032;51.386;12.516;2022-07-12T10:09:16;100963.56;;;28.55;42.96
19748;BME280;10032;51.386;12.516;2022-07-12T10:11:42;100952.66;;;28.38;43.03
19748;BME280;10032;51.386;12.516;2022-07-12T10:14:12;100964.16;;;28.61;42.13
19748;BME280;10032;51.386;12.516;2022-07-12T10:16:38;100957.06;;;28.75;41.67
19748;BME280;10032;51.386;12.516;2022-07-12T10:19:27;100958.88;;;29.07;42.59
19748;BME280;10032;51.386;12.516;2022-07-12T10:21:57;100960.63;;;29.39;42.09
19748;BME280;10032;51.386;12.516;2022-07-12T10:29:23;100972.84;;;29.74;41.98
19748;BME280;10032;51.386;12.516;2022-07-12T10:31:51;100969.16;;;29.58;41.21
19748;BME280;10032;51.386;12.516;2022-07-12T10:34:21;100975.63;;;28.95;40.94
19748;BME280;10032;51.386;12.516;2022-07-12T10:39:28;100969.91;;;29.55;41.28
19748;BME280;10032;51.386;12.516;2022-07-12T10:44:39;100971.47;;;30.11;40.45
19748;BME280;10032;51.386;12.516;2022-07-12T10:47:06;100966.00;;;29.87;40.12
19748;BME280;10032;51.386;12.516;2022-07-12T10:49:33;100961.31;;;30.07;39.53
19748;BME280;10032;51.386;12.516;2022-07-12T10:54:39;100967.38;;;30.09;39.67
19748;BME280;10032;51.386;12.516;2022-07-12T10:57:05;100977.69;;;29.77;39.49
19748;BME280;10032;51.386;12.516;2022-07-12T10:59:36;100970.19;;;29.66;38.60
19748;BME280;10032;51.386;12.516;2022-07-12T11:02:03;100960.09;;;29.61;38.55
19748;BME280;10032;51.386;12.516;2022-07-12T11:04:28;100957.16;;;29.85;39.58
19748;BME280;10032;51.386;12.516;2022-07-12T11:06:55;100962.06;;;30.04;39.00
19748;BME280;10032;51.386;12.516;2022-07-12T11:09:22;100964.06;;;29.76;38.01
19748;BME280;10032;51.386;12.516;2022-07-12T11:11:49;100964.59;;;29.38;38.35
19748;BME280;10032;51.386;12.516;2022-07-12T11:14:23;100961.31;;;29.36;38.32
19748;BME280;10032;51.386;12.516;2022-07-12T11:16:50;100956.34;;;29.69;38.48
19748;BME280;10032;51.386;12.516;2022-07-12T11:19:29;100952.19;;;29.79;38.32
19748;BME280;10032;51.386;12.516;2022-07-12T11:21:56;100961.84;;;29.81;38.79
19748;BME280;10032;51.386;12.516;2022-07-12T11:24:25;100956.00;;;29.86;38.52
19748;BME280;10032;51.386;12.516;2022-07-12T11:26:51;100953.19;;;29.86;39.16
19748;BME280;10032;51.386;12.516;2022-07-12T11:29:17;100951.81;;;30.23;38.32
19748;BME280;10032;51.386;12.516;2022-07-12T11:31:44;100954.38;;;30.01;37.89
19748;BME280;10032;51.386;12.516;2022-07-12T11:34:35;100943.84;;;30.25;36.90
19748;BME280;10032;51.386;12.516;2022-07-12T11:37:01;100947.28;;;30.19;37.84
19748;BME280;10032;51.386;12.516;2022-07-12T11:39:36;100940.59;;;30.39;37.25
19748;BME280;10032;51.386;12.516;2022-07-12T11:42:03;100932.09;;;30.66;37.73
19748;BME280;10032;51.386;12.516;2022-07-12T11:44:51;100939.94;;;30.76;37.07
19748;BME280;10032;51.386;12.516;2022-07-12T11:47:19;100933.22;;;30.81;37.23
19748;BME280;10032;51.386;12.516;2022-07-12T11:49:46;100929.00;;;31.06;37.57
19748;BME280;10032;51.386;12.516;2022-07-12T11:52:16;100930.53;;;31.03;36.77
19748;BME280;10032;51.386;12.516;2022-07-12T11:54:45;100925.72;;;31.19;37.01
19748;BME280;10032;51.386;12.516;2022-07-12T11:57:12;100936.28;;;31.10;36.35
19748;BME280;10032;51.386;12.516;2022-07-12T11:59:37;100929.06;;;31.09;35.69
19748;BME280;10032;51.386;12.516;2022-07-12T12:02:07;100914.34;;;31.12;35.47
19748;BME280;10032;51.386;12.516;2022-07-12T12:07:08;100907.13;;;31.30;35.30
19748;BME280;10032;51.386;12.516;2022-07-12T12:10:26;100907.66;;;31.58;35.39
19748;BME280;10032;51.386;12.516;2022-07-12T12:12:52;100914.63;;;31.45;34.79
19748;BME280;10032;51.386;12.516;2022-07-12T12:15:22;100904.31;;;31.49;35.34
19748;BME280;10032;51.386;12.516;2022-07-12T12:20:19;100896.03;;;31.75;34.73
19748;BME280;10032;51.386;12.516;2022-07-12T12:22:46;100904.25;;;31.87;34.15
19748;BME280;10032;51.386;12.516;2022-07-12T12:25:13;100895.81;;;32.10;34.29
19748;BME280;10032;51.386;12.516;2022-07-12T12:27:53;100895.13;;;31.71;33.66
19748;BME280;10032;51.386;12.516;2022-07-12T12:30:19;100891.72;;;32.04;33.80
19748;BME280;10032;51.386;12.516;2022-07-12T12:32:48;100891.56;;;32.19;34.29
19748;BME280;10032;51.386;12.516;2022-07-12T12:35:15;100896.22;;;32.31;33.52
19748;BME280;10032;51.386;12.516;2022-07-12T12:37:55;100883.03;;;32.12;33.66
19748;BME280;10032;51.386;12.516;2022-07-12T12:40:23;100896.94;;;32.28;33.33
19748;BME280;10032;51.386;12.516;2022-07-12T12:42:48;100893.00;;;32.32;33.21
19748;BME280;10032;51.386;12.516;2022-07-12T12:45:33;100886.31;;;32.18;32.75
19748;BME280;10032;51.386;12.516;2022-07-12T12:48:05;100890.69;;;32.15;32.58
19748;BME280;10032;51.386;12.516;2022-07-12T12:50:42;100886.38;;;32.21;32.60
19748;BME280;10032;51.386;12.516;2022-07-12T12:53:38;100888.25;;;32.36;32.46
19748;BME280;10032;51.386;12.516;2022-07-12T12:56:11;100886.66;;;32.35;32.52